createdAt,value
2022-12-16T00:02:30.533Z,13.4
2022-12-16T00:08:07.835Z,13.4
2022-12-16T00:13:43.172Z,13.4
2022-12-16T00:19:18.281Z,13.4
2022-12-16T00:24:53.655Z,13.4
2022-12-16T00:30:30.221Z,13.4
2022-12-16T00:36:05.243Z,13.4
2022-12-16T00:41:40.046Z,13.3
2022-12-16T00:47:41.010Z,13.3
2022-12-16T00:53:16.627Z,13.3
2022-12-16T00:58:51.546Z,13.3
2022-12-16T01:04:29.031Z,13.2
2022-12-16T01:10:04.174Z,13.2
2022-12-16T01:15:40.471Z,13.2
2022-12-16T01:21:16.207Z,13.2
2022-12-16T01:26:51.364Z,13.2
2022-12-16T01:32:28.203Z,13.1
2022-12-16T01:38:06.133Z,13.1
2022-12-16T01:43:42.834Z,13.1
2022-12-16T01:49:39.883Z,13.1
2022-12-16T01:55:12.613Z,13
2022-12-16T02:00:47.775Z,13
2022-12-16T02:06:24.337Z,13
2022-12-16T02:11:59.213Z,13
2022-12-16T02:17:33.802Z,12.9
2022-12-16T02:23:09.022Z,12.8
2022-12-16T02:28:44.218Z,12.8
2022-12-16T02:34:19.150Z,12.8
2022-12-16T02:39:54.684Z,12.7
2022-12-16T02:45:30.121Z,12.7
2022-12-16T02:51:06.100Z,12.7
2022-12-16T02:56:41.193Z,12.8
2022-12-16T03:02:16.893Z,12.7
2022-12-16T03:07:54.425Z,12.7
2022-12-16T03:13:29.673Z,12.7
2022-12-16T03:19:09.885Z,12.8
2022-12-16T03:24:45.902Z,12.8
2022-12-16T03:30:21.651Z,12.8
2022-12-16T03:35:56.719Z,12.8
2022-12-16T03:41:32.957Z,12.8
2022-12-16T03:47:38.315Z,12.9
2022-12-16T03:53:11.194Z,12.9
2022-12-16T03:58:46.656Z,12.9
2022-12-16T04:04:22.017Z,12.9
2022-12-16T04:09:57.784Z,12.8
2022-12-16T04:15:34.033Z,12.8
2022-12-16T04:21:11.198Z,12.7
2022-12-16T04:26:46.021Z,12.7
2022-12-16T04:32:21.792Z,12.7
2022-12-16T04:37:57.174Z,12.7
2022-12-16T04:43:33.501Z,12.7
2022-12-16T04:49:32.633Z,12.7
2022-12-16T04:55:05.788Z,12.6
2022-12-16T05:00:41.312Z,12.7
2022-12-16T05:06:16.760Z,12.7
2022-12-16T05:11:51.680Z,12.7
2022-12-16T05:17:28.140Z,12.7
2022-12-16T05:23:03.213Z,12.6
2022-12-16T05:28:37.965Z,12.6
2022-12-16T05:34:13.044Z,12.6
2022-12-16T05:39:48.340Z,12.6
2022-12-16T05:45:23.141Z,12.6
2022-12-16T05:50:59.335Z,12.6
2022-12-16T05:56:34.276Z,12.6
2022-12-16T06:02:09.759Z,12.6
2022-12-16T06:07:47.362Z,12.6
2022-12-16T06:13:22.325Z,12.7
2022-12-16T06:19:18.224Z,12.7
2022-12-16T06:25:01.350Z,12.7
2022-12-16T06:30:36.895Z,12.7
2022-12-16T06:36:12.163Z,12.7
2022-12-16T06:41:48.004Z,12.7
2022-12-16T06:47:44.850Z,12.7
2022-12-16T06:53:17.471Z,12.7
2022-12-16T06:58:52.762Z,12.7
2022-12-16T07:04:27.879Z,12.6
2022-12-16T07:10:03.121Z,12.7
2022-12-16T07:15:39.294Z,11.8
2022-12-16T07:21:14.343Z,11.1
2022-12-16T07:26:50.006Z,10.9
2022-12-16T07:32:25.341Z,10.9
2022-12-16T07:38:00.757Z,10.8
2022-12-16T07:43:36.701Z,10.8
2022-12-16T07:49:14.767Z,10.7
2022-12-16T07:54:49.900Z,10.7
2022-12-16T08:00:30.273Z,10.6
2022-12-16T08:06:06.350Z,10.6
2022-12-16T08:11:41.765Z,10.5
2022-12-16T08:17:18.157Z,10.6
2022-12-16T08:22:57.358Z,10.5
2022-12-16T08:28:32.239Z,10.6
2022-12-16T08:34:07.646Z,10.7
2022-12-16T08:39:44.585Z,10.9
2022-12-16T08:46:12.880Z,11.1
2022-12-16T08:51:51.288Z,11.1
2022-12-16T08:57:27.307Z,11.2
2022-12-16T09:03:09.434Z,11.2
2022-12-16T09:08:47.694Z,11.5
2022-12-16T09:14:23.829Z,11.3
2022-12-16T09:20:20.001Z,11.3
2022-12-16T09:25:55.713Z,11.2
2022-12-16T09:31:32.572Z,11.2
2022-12-16T09:37:08.793Z,11.2
2022-12-16T09:42:44.488Z,11.4
2022-12-16T09:48:21.071Z,11.6
2022-12-16T09:53:57.018Z,11.5
2022-12-16T09:59:31.851Z,11.1
2022-12-16T10:05:07.987Z,10.7
2022-12-16T10:10:43.728Z,10.8
2022-12-16T10:16:20.163Z,10.8
2022-12-16T10:21:57.473Z,10.7
2022-12-16T10:27:32.529Z,10.8
2022-12-16T10:33:07.962Z,10.8
2022-12-16T10:38:44.334Z,10.9
2022-12-16T10:44:19.855Z,10.7
2022-12-16T10:49:55.274Z,10.5
2022-12-16T10:55:32.425Z,10.3
2022-12-16T11:01:08.068Z,10.5
2022-12-16T11:06:44.295Z,10.5
2022-12-16T11:12:20.010Z,10.3
2022-12-16T11:17:56.193Z,10.3
2022-12-16T11:23:31.881Z,10.4
2022-12-16T11:29:11.748Z,10.3
2022-12-16T11:34:46.526Z,10.3
2022-12-16T11:40:22.218Z,10.5
2022-12-16T11:45:58.644Z,10.3
2022-12-16T11:51:35.000Z,10.1
2022-12-16T11:57:10.147Z,10
2022-12-16T12:02:46.028Z,10.1
2022-12-16T12:08:22.855Z,9.8
2022-12-16T12:13:57.958Z,9.6
2022-12-16T12:19:38.222Z,9.5
2022-12-16T12:25:19.794Z,9.7
2022-12-16T12:30:54.545Z,9.7
2022-12-16T12:36:36.156Z,9.6
2022-12-16T12:42:13.517Z,9.4
2022-12-16T12:47:48.739Z,9.5
2022-12-16T12:53:32.914Z,9.5
2022-12-16T12:59:15.121Z,9.6
2022-12-16T13:04:50.264Z,9.3
2022-12-16T13:10:30.654Z,9.3
2022-12-16T13:16:06.854Z,9.3
2022-12-16T13:21:44.521Z,9.4
2022-12-16T13:27:20.095Z,9.3
2022-12-16T13:32:55.111Z,9.2
2022-12-16T13:38:31.059Z,9.3
2022-12-16T13:44:05.983Z,9.4
2022-12-16T13:49:41.615Z,9.3
2022-12-16T13:55:24.869Z,9.2
2022-12-16T14:01:01.816Z,9.2
2022-12-16T14:06:37.414Z,9.2
2022-12-16T14:12:34.191Z,9.1
2022-12-16T14:18:18.133Z,9
2022-12-16T14:23:57.901Z,8.9
2022-12-16T14:30:49.564Z,9
2022-12-16T14:36:25.854Z,9.2
2022-12-16T14:42:02.172Z,9.2
2022-12-16T14:47:45.933Z,9.2
2022-12-16T14:53:21.361Z,9.2
2022-12-16T14:58:56.480Z,9.3
2022-12-16T15:04:31.936Z,9.3
2022-12-16T15:10:09.608Z,9.4
2022-12-16T15:15:44.883Z,9.4
2022-12-16T15:21:21.500Z,9.3
2022-12-16T15:26:57.333Z,9.2
2022-12-16T15:32:37.031Z,9.8
2022-12-16T15:38:43.039Z,9.7
2022-12-16T15:44:20.714Z,9.4
2022-12-16T15:50:00.725Z,9.4
2022-12-16T15:55:40.345Z,9.3
2022-12-16T16:01:15.587Z,9.3
2022-12-16T16:06:51.729Z,9.2
2022-12-16T16:12:26.986Z,9.2
2022-12-16T16:18:04.861Z,9.1
2022-12-16T16:23:40.477Z,9.2
2022-12-16T16:30:00.457Z,9.1
2022-12-16T16:35:42.491Z,9
2022-12-16T16:41:18.116Z,9.1
2022-12-16T16:47:14.839Z,9
2022-12-16T16:52:48.568Z,9
2022-12-16T16:58:23.463Z,9
2022-12-16T17:04:01.925Z,8.9
2022-12-16T17:09:43.780Z,8.9
2022-12-16T17:15:18.762Z,8.9
2022-12-16T17:20:53.801Z,8.8
2022-12-16T17:26:32.582Z,8.8
2022-12-16T17:32:09.032Z,8.9
2022-12-16T17:37:52.642Z,8.8
2022-12-16T17:43:29.019Z,8.8
2022-12-16T17:49:29.643Z,9.5
2022-12-16T17:55:02.649Z,10
2022-12-16T18:00:38.449Z,10.2
2022-12-16T18:06:13.582Z,10.3
2022-12-16T18:11:48.756Z,10.4
2022-12-16T18:17:45.990Z,10.4
2022-12-16T18:23:22.367Z,10.5
2022-12-16T18:28:57.220Z,10.5
2022-12-16T18:34:32.509Z,10.6
2022-12-16T18:40:17.297Z,10.6
2022-12-16T18:45:53.559Z,10.6
2022-12-16T18:51:30.543Z,10.6
2022-12-16T18:57:05.983Z,10.6
2022-12-16T19:02:41.379Z,10.6
2022-12-16T19:08:18.827Z,10.7
2022-12-16T19:13:53.876Z,10.6
2022-12-16T19:19:29.027Z,10.6
2022-12-16T19:25:04.249Z,10.6
2022-12-16T19:30:40.936Z,10.6
2022-12-16T19:36:16.158Z,10.5
2022-12-16T19:41:52.814Z,10.5
2022-12-16T19:47:31.959Z,10.5
2022-12-16T19:53:07.418Z,10.5
2022-12-16T19:58:44.948Z,10.5
2022-12-16T20:04:20.295Z,10.5
2022-12-16T20:09:56.083Z,10.5
2022-12-16T20:15:31.876Z,10.5
2022-12-16T20:21:07.373Z,10.6
2022-12-16T20:26:43.609Z,10.6
2022-12-16T20:32:19.242Z,10.5
2022-12-16T20:37:54.265Z,10.5
2022-12-16T20:43:31.187Z,10.6
2022-12-16T20:49:06.981Z,10.6
2022-12-16T20:54:44.070Z,10.5
2022-12-16T21:00:19.209Z,10.5
2022-12-16T21:06:12.522Z,10.5
2022-12-16T21:11:56.355Z,10.5
2022-12-16T21:17:31.801Z,10.5
2022-12-16T21:23:08.358Z,10.5
2022-12-16T21:28:44.621Z,10.5
2022-12-16T21:34:19.928Z,10.5
2022-12-16T21:39:56.385Z,10.5
2022-12-16T21:45:31.770Z,10.5
2022-12-16T21:51:07.009Z,10.4
2022-12-16T21:56:42.597Z,10.4
2022-12-16T22:02:17.901Z,10.4
2022-12-16T22:07:52.705Z,10.4
2022-12-16T22:13:31.396Z,10.4
2022-12-16T22:19:06.741Z,10.4
2022-12-16T22:24:41.869Z,10.4
2022-12-16T22:30:17.633Z,10.4
2022-12-16T22:35:54.080Z,10.3
2022-12-16T22:41:30.567Z,10.3
2022-12-16T22:47:28.691Z,10.4
2022-12-16T22:53:02.881Z,10.4
2022-12-16T22:58:38.972Z,10.4
2022-12-16T23:04:14.537Z,10.3
2022-12-16T23:09:50.653Z,10.3
2022-12-16T23:15:30.749Z,10.3
2022-12-16T23:21:07.341Z,10.3
2022-12-16T23:26:45.331Z,10.3
2022-12-16T23:32:20.198Z,10.3
2022-12-16T23:37:55.526Z,10.3
2022-12-16T23:43:31.715Z,10.3
2022-12-16T23:49:28.923Z,10.3
2022-12-16T23:55:01.756Z,10.3
